sensor_id;sensor_type;location;lat;lon;timestamp;pressure;altitude;pressure_sealevel;temperature;humidity
46382;BME280;66809;52.974;-2.514;2024-01-06T00:01:40;1003.7066823629661;;;3.806623792650123;45.58519927874418
46382;BME280;66809;52.974;-2.514;2024-01-06T00:03:40;1003.7242678113164;;;3.7719235286563033;45.58168473244246
46382;BME280;66809;52.974;-2.514;2024-01-06T00:05:41;1003.7423959970331;;;3.721286144824705;45.585257176651986
46382;BME280;66809;52.974;-2.514;2024-01-06T00:07:41;1003.7608669719315;;;3.6699682482342237;45.585258201467276
46382;BME280;66809;52.974;-2.514;2024-01-06T00:09:41;1003.7793320772329;;;3.6445579078950847;45.589791030363266
46382;BME280;66809;52.974;-2.514;2024-01-06T00:11:40;1003.7977637509209;;;3.6155114735329383;45.58979412160535
46382;BME280;66809;52.974;-2.514;2024-01-06T00:13:40;1003.8160865547337;;;3.5788099916668528;45.58303293067182
46382;BME280;66809;52.974;-2.514;2024-01-06T00:15:40;1003.8362121937104;;;3.5437366460526936;45.58320459048774
46382;BME280;66809;52.974;-2.514;2024-01-06T00:17:40;1003.856705211056;;;3.491778500702758;45.58133942992422
46382;BME280;66809;52.974;-2.514;2024-01-06T00:19:40;1003.8774686730903;;;3.4418367071211415;45.57284664328742
46382;BME280;66809;52.974;-2.514;2024-01-06T00:21:41;1003.8994559455906;;;3.4056321849530256;45.56163667175306
46382;BME280;66809;52.974;-2.514;2024-01-06T00:23:41;1003.9217208105368;;;3.3642581801492653;45.54497820526964
46382;BME280;66809;52.974;-2.514;2024-01-06T00:25:41;1003.9446492765418;;;3.3311206157658875;45.52520124327485
46382;BME280;66809;52.974;-2.514;2024-01-06T00:27:40;1003.9680933667921;;;3.307039843497504;45.49922632247744
46382;BME280;66809;52.974;-2.514;2024-01-06T00:29:41;1003.9905106958289;;;3.28095997974576;45.45885427006029
46382;BME280;66809;52.974;-2.514;2024-01-06T00:31:41;1004.0138061852648;;;3.262547192320608;45.411038387643345
46382;BME280;66809;52.974;-2.514;2024-01-06T00:33:41;1004.0381214889834;;;3.2365765544138068;45.365946439694035
46382;BME280;66809;52.974;-2.514;2024-01-06T00:35:40;1004.0628993595044;;;3.2162835882818666;45.312664195207866
46382;BME280;66809;52.974;-2.514;2024-01-06T00:37:40;1004.0871901131524;;;3.1993092040183084;45.26239943704804
46382;BME280;66809;52.974;-2.514;2024-01-06T00:39:41;1004.1117610762805;;;3.180479825397926;45.205505503424696
46382;BME280;66809;52.974;-2.514;2024-01-06T00:41:41;1004.1353691357695;;;3.1668912467791963;45.14987511512507
46382;BME280;66809;52.974;-2.514;2024-01-06T00:43:41;1004.1557881149181;;;3.1509939935997413;45.09600149763745
46382;BME280;66809;52.974;-2.514;2024-01-06T00:45:41;1004.1766347823713;;;3.134215894379288;45.04699936978782
46382;BME280;66809;52.974;-2.514;2024-01-06T00:47:40;1004.1968253885138;;;3.1181825116587265;45.002254204370054
46382;BME280;66809;52.974;-2.514;2024-01-06T00:49:40;1004.2162489287404;;;3.104425931668088;44.95569969413563
46382;BME280;66809;52.974;-2.514;2024-01-06T00:51:41;1004.2348232515143;;;3.0840776536618346;44.905603142623846
46382;BME280;66809;52.974;-2.514;2024-01-06T00:53:41;1004.2543151189589;;;3.0801574680226644;44.8537920306706
46382;BME280;66809;52.974;-2.514;2024-01-06T00:55:41;1004.2737683515884;;;3.074708225543499;44.81122628855522
46382;BME280;66809;52.974;-2.514;2024-01-06T00:57:40;1004.2948207838277;;;3.066925093944848;44.76925844470681
46382;BME280;66809;52.974;-2.514;2024-01-06T00:59:40;1004.3166459799387;;;3.0585387652811677;44.72500954812168
46382;BME280;66809;52.974;-2.514;2024-01-06T01:01:40;1004.3394250834723;;;3.0573423577945937;44.680203731994105
46382;BME280;66809;52.974;-2.514;2024-01-06T01:03:41;1004.3621857947734;;;3.0617833052282886;44.6372717860724
46382;BME280;66809;52.974;-2.514;2024-01-06T01:05:41;1004.38555926077;;;3.072333792144881;44.58545941953324
46382;BME280;66809;52.974;-2.514;2024-01-06T01:07:41;1004.4092220911969;;;3.0839277639985423;44.533201078811935
46382;BME280;66809;52.974;-2.514;2024-01-06T01:09:40;1004.4332274343022;;;3.103973578255707;44.47772865537636
46382;BME280;66809;52.974;-2.514;2024-01-06T01:11:41;1004.4588784536826;;;3.124051697595246;44.41891728059197
46382;BME280;66809;52.974;-2.514;2024-01-06T01:13:41;1004.4837290758245;;;3.13929403004847;44.350952126462296
46382;BME280;66809;52.974;-2.514;2024-01-06T01:15:40;1004.5065036818835;;;3.163451610192845;44.27556543566948
46382;BME280;66809;52.974;-2.514;2024-01-06T01:17:40;1004.5285005955054;;;3.190180045727716;44.188500689547034
46382;BME280;66809;52.974;-2.514;2024-01-06T01:19:40;1004.5494083369374;;;3.2175470021535433;44.11059054310758
46382;BME280;66809;52.974;-2.514;2024-01-06T01:21:40;1004.5705121565114;;;3.239223575290215;44.0354147223015
46382;BME280;66809;52.974;-2.514;2024-01-06T01:23:41;1004.5920074923853;;;3.2710097165582024;43.96156660381351
46382;BME280;66809;52.974;-2.514;2024-01-06T01:25:41;1004.613230073003;;;3.3093959887299396;43.88893230342429
46382;BME280;66809;52.974;-2.514;2024-01-06T01:27:40;1004.6330726777317;;;3.3288643381001632;43.80891908005858
46382;BME280;66809;52.974;-2.514;2024-01-06T01:29:40;1004.6540258807067;;;3.3590357291135446;43.73911961849167
46382;BME280;66809;52.974;-2.514;2024-01-06T01:31:41;1004.674478524217;;;3.384588044473434;43.67848746804635
46382;BME280;66809;52.974;-2.514;2024-01-06T01:33:41;1004.6943341288694;;;3.4169690218480184;43.621439841189456
46382;BME280;66809;52.974;-2.514;2024-01-06T01:35:41;1004.7143448483197;;;3.4452602079422308;43.57279251721063
46382;BME280;66809;52.974;-2.514;2024-01-06T01:37:40;1004.7350179344153;;;3.4628597810421216;43.51216191221981
46382;BME280;66809;52.974;-2.514;2024-01-06T01:39:40;1004.7562092769933;;;3.494719865043272;43.457413390542776
46382;BME280;66809;52.974;-2.514;2024-01-06T01:41:40;1004.7780670628276;;;3.523288287833842;43.40354433788965
46382;BME280;66809;52.974;-2.514;2024-01-06T01:43:40;1004.8002470799091;;;3.5563077572353463;43.34446434408824
46382;BME280;66809;52.974;-2.514;2024-01-06T01:45:41;1004.8226498034472;;;3.58568807793505;43.281056672544544
46382;BME280;66809;52.974;-2.514;2024-01-06T01:47:41;1004.8458915848427;;;3.6168105186339843;43.21534112850278
46382;BME280;66809;52.974;-2.514;2024-01-06T01:49:41;1004.8706076541662;;;3.6450428367001635;43.14323460025043
46382;BME280;66809;52.974;-2.514;2024-01-06T01:51:41;1004.8955116425768;;;3.6718216923735407;43.07421472197
46382;BME280;66809;52.974;-2.514;2024-01-06T01:53:42;1004.9196570963476;;;3.6992558489037557;43.01023467001419
46382;BME280;66809;52.974;-2.514;2024-01-06T01:55:42;1004.9450205790778;;;3.731342678629464;42.94694120841647
46382;BME280;66809;52.974;-2.514;2024-01-06T01:57:41;1004.9695117209199;;;3.7668741190833916;42.89042013557888
46382;BME280;66809;52.974;-2.514;2024-01-06T01:59:41;1004.9929397825955;;;3.797312998552018;42.83447399153627
46382;BME280;66809;52.974;-2.514;2024-01-06T02:01:41;1005.0161035706715;;;3.8268156591314177;42.773812586213964
46382;BME280;66809;52.974;-2.514;2024-01-06T02:03:41;1005.0385550179694;;;3.8606685814635986;42.70898739967112
46382;BME280;66809;52.974;-2.514;2024-01-06T02:05:41;1005.0595088061581;;;3.8942929677879596;42.64063997941605
46382;BME280;66809;52.974;-2.514;2024-01-06T02:07:41;1005.0789307152311;;;3.9191563737557966;42.57892430224653
46382;BME280;66809;52.974;-2.514;2024-01-06T02:09:41;1005.096958601229;;;3.936258575735331;42.51814890121988
46382;BME280;66809;52.974;-2.514;2024-01-06T02:11:41;1005.1137572409949;;;3.949302882000327;42.455985668131376
46382;BME280;66809;52.974;-2.514;2024-01-06T02:13:40;1005.1310136252471;;;3.970441022252115;42.40159547198529
46382;BME280;66809;52.974;-2.514;2024-01-06T02:15:40;1005.1502525055326;;;3.982742541892405;42.35084584860264
46382;BME280;66809;52.974;-2.514;2024-01-06T02:17:40;1005.1712558750163;;;3.9958488678868074;42.3156276846728
46382;BME280;66809;52.974;-2.514;2024-01-06T02:19:40;1005.1932757038142;;;4.002008902928899;42.28185104255511
46382;BME280;66809;52.974;-2.514;2024-01-06T02:21:42;1005.2149957265325;;;4.008746900400546;42.24786440547113
46382;BME280;66809;52.974;-2.514;2024-01-06T02:23:41;1005.236086679742;;;4.017306280505422;42.21376856050552
46382;BME280;66809;52.974;-2.514;2024-01-06T02:25:41;1005.2573083763102;;;4.018289255467976;42.18362260097828
46382;BME280;66809;52.974;-2.514;2024-01-06T02:27:40;1005.2809413703139;;;4.018742936150004;42.165166915417934
46382;BME280;66809;52.974;-2.514;2024-01-06T02:29:40;1005.3047866037488;;;4.015273119192913;42.14776116561684
46382;BME280;66809;52.974;-2.514;2024-01-06T02:31:40;1005.3285172345882;;;4.0141371759342945;42.1242601570566
46382;BME280;66809;52.974;-2.514;2024-01-06T02:33:40;1005.3529136800545;;;4.006542226898159;42.09785422023151
46382;BME280;66809;52.974;-2.514;2024-01-06T02:35:40;1005.3782210635618;;;3.9967964982690702;42.06873733805139
46382;BME280;66809;52.974;-2.514;2024-01-06T02:37:40;1005.4044727210178;;;3.9953983731583818;42.04802480594483
46382;BME280;66809;52.974;-2.514;2024-01-06T02:39:40;1005.4302332246165;;;3.9971406673478738;42.0278871990737
46382;BME280;66809;52.974;-2.514;2024-01-06T02:41:40;1005.4554876906652;;;3.979616906480158;42.006783806875816
46382;BME280;66809;52.974;-2.514;2024-01-06T02:43:40;1005.4811391945716;;;3.9669474683788892;41.98403964442671
46382;BME280;66809;52.974;-2.514;2024-01-06T02:45:41;1005.506623347669;;;3.9608546577032664;41.960723291259555
46382;BME280;66809;52.974;-2.514;2024-01-06T02:47:40;1005.5314969311934;;;3.950243583521058;41.935377861329165
46382;BME280;66809;52.974;-2.514;2024-01-06T02:49:40;1005.5539457374786;;;3.942993106720449;41.91294442401564
46382;BME280;66809;52.974;-2.514;2024-01-06T02:51:40;1005.5757224250317;;;3.93681802136647;41.88838983376952
46382;BME280;66809;52.974;-2.514;2024-01-06T02:53:40;1005.5982660605874;;;3.9302984773473355;41.85755635161408
46382;BME280;66809;52.974;-2.514;2024-01-06T02:55:40;1005.6191743867732;;;3.923232840510693;41.814360693073155
46382;BME280;66809;52.974;-2.514;2024-01-06T02:57:40;1005.6406992822978;;;3.908849522014651;41.75501354968378
46382;BME280;66809;52.974;-2.514;2024-01-06T02:59:40;1005.6622209276544;;;3.8896185549511513;41.70009610829884
46382;BME280;66809;52.974;-2.514;2024-01-06T03:01:40;1005.6834300510361;;;3.875088953430807;41.646614966250006
46382;BME280;66809;52.974;-2.514;2024-01-06T03:03:40;1005.7051162734216;;;3.8545102938165914;41.587616608237646
46382;BME280;66809;52.974;-2.514;2024-01-06T03:05:40;1005.7291423976906;;;3.8254562877757947;41.538272893642066
46382;BME280;66809;52.974;-2.514;2024-01-06T03:07:40;1005.7554127340895;;;3.808288196633188;41.47434208460482
46382;BME280;66809;52.974;-2.514;2024-01-06T03:09:41;1005.7828175895312;;;3.7800792923059565;41.40431781668122
46382;BME280;66809;52.974;-2.514;2024-01-06T03:11:41;1005.8105601731916;;;3.7460901983321615;41.335645080182566
46382;BME280;66809;52.974;-2.514;2024-01-06T03:13:40;1005.8380475838829;;;3.7046927573416317;41.28425528681586
46382;BME280;66809;52.974;-2.514;2024-01-06T03:15:41;1005.8656035247053;;;3.6723852804773935;41.25111193385967
46382;BME280;66809;52.974;-2.514;2024-01-06T03:17:40;1005.8925570417115;;;3.63587880324412;41.227806707922944
46382;BME280;66809;52.974;-2.514;2024-01-06T03:19:40;1005.9192726281295;;;3.6110583248221393;41.20700800192933
46382;BME280;66809;52.974;-2.514;2024-01-06T03:21:40;1005.9456398821956;;;3.5725426058767007;41.17570151775517
46382;BME280;66809;52.974;-2.514;2024-01-06T03:23:40;1005.9725050152394;;;3.5290381522277072;41.14237203782222
46382;BME280;66809;52.974;-2.514;2024-01-06T03:25:40;1005.9992411308483;;;3.490152788239258;41.11791898526781
46382;BME280;66809;52.974;-2.514;2024-01-06T03:27:41;1006.0242061649021;;;3.4576706330423908;41.093949022014414
46382;BME280;66809;52.974;-2.514;2024-01-06T03:29:41;1006.0476721597404;;;3.416375788635978;41.06892352181607
46382;BME280;66809;52.974;-2.514;2024-01-06T03:31:42;1006.0705266793105;;;3.383424888276134;41.04873262123077
46382;BME280;66809;52.974;-2.514;2024-01-06T03:33:41;1006.0922661172805;;;3.3568657764767904;41.034046350595744
46382;BME280;66809;52.974;-2.514;2024-01-06T03:35:41;1006.1131545517508;;;3.3280285761666346;41.0169566975461
46382;BME280;66809;52.974;-2.514;2024-01-06T03:37:41;1006.1319604774541;;;3.313468040315833;41.00286670315632
46382;BME280;66809;52.974;-2.514;2024-01-06T03:39:41;1006.1495127494246;;;3.279912664308268;40.98945650684677
46382;BME280;66809;52.974;-2.514;2024-01-06T03:41:41;1006.1683592401217;;;3.2675250929021025;40.97489295267458
46382;BME280;66809;52.974;-2.514;2024-01-06T03:43:41;1006.1880233918603;;;3.255829462489961;40.96071942017242
46382;BME280;66809;52.974;-2.514;2024-01-06T03:45:41;1006.20836512951;;;3.227405665434776;40.948190049219725
46382;BME280;66809;52.974;-2.514;2024-01-06T03:47:41;1006.2290747024737;;;3.2065343607931616;40.9344011761883
46382;BME280;66809;52.974;-2.514;2024-01-06T03:49:41;1006.2495866135279;;;3.1860999353709776;40.93605811033909
46382;BME280;66809;52.974;-2.514;2024-01-06T03:51:40;1006.2706946386905;;;3.167581039627043;40.9355979955146
46382;BME280;66809;52.974;-2.514;2024-01-06T03:53:41;1006.2906775909388;;;3.145137369313933;40.92906064164526
46382;BME280;66809;52.974;-2.514;2024-01-06T03:55:41;1006.3112000221118;;;3.1243434125007377;40.91308233157793
46382;BME280;66809;52.974;-2.514;2024-01-06T03:57:41;1006.3319036474782;;;3.1001990092122798;40.90753801934491
46382;BME280;66809;52.974;-2.514;2024-01-06T03:59:42;1006.3528739185043;;;3.07435451669726;40.882600433914895
46382;BME280;66809;52.974;-2.514;2024-01-06T04:01:41;1006.373824793523;;;3.053190953768484;40.85612127080755
46382;BME280;66809;52.974;-2.514;2024-01-06T04:03:41;1006.3947092511365;;;3.025425603659662;40.84807329663217
46382;BME280;66809;52.974;-2.514;2024-01-06T04:05:41;1006.4151302932868;;;3.009027011872821;40.840504636500754
46382;BME280;66809;52.974;-2.514;2024-01-06T04:07:40;1006.4358459866992;;;2.980379555870527;40.82957681974924
46382;BME280;66809;52.974;-2.514;2024-01-06T04:09:42;1006.4555553421998;;;2.953959840492826;40.813354775647184
46382;BME280;66809;52.974;-2.514;2024-01-06T04:11:41;1006.4759636964101;;;2.928489516223629;40.82460378871973
46382;BME280;66809;52.974;-2.514;2024-01-06T04:13:41;1006.4962060156964;;;2.9025823458120072;40.82995456788163
46382;BME280;66809;52.974;-2.514;2024-01-06T04:15:41;1006.5148731587734;;;2.872019475287323;40.83239709945065
46382;BME280;66809;52.974;-2.514;2024-01-06T04:17:41;1006.5313451837803;;;2.8386085517753172;40.800719344684914
46382;BME280;66809;52.974;-2.514;2024-01-06T04:19:41;1006.5458116937459;;;2.796072392404994;40.7336784831975
46382;BME280;66809;52.974;-2.514;2024-01-06T04:21:41;1006.5597609685833;;;2.7628476591183166;40.68909688181065
46382;BME280;66809;52.974;-2.514;2024-01-06T04:23:40;1006.5727824416608;;;2.7263380153502172;40.64741195713694
46382;BME280;66809;52.974;-2.514;2024-01-06T04:25:40;1006.5862353498017;;;2.6937501540591264;40.600320587863294
46382;BME280;66809;52.974;-2.514;2024-01-06T04:27:40;1006.6001117154325;;;2.665268894809836;40.555826467266996
46382;BME280;66809;52.974;-2.514;2024-01-06T04:29:40;1006.6132563095542;;;2.6317652958436657;40.52597060191481
46382;BME280;66809;52.974;-2.514;2024-01-06T04:31:41;1006.6260302900474;;;2.6031664153899827;40.49370301797489
46382;BME280;66809;52.974;-2.514;2024-01-06T04:33:41;1006.638432805906;;;2.5722907714557057;40.47316750555002
46382;BME280;66809;52.974;-2.514;2024-01-06T04:35:41;1006.6505251158527;;;2.5459532158399316;40.469670271668626
46382;BME280;66809;52.974;-2.514;2024-01-06T04:37:40;1006.6628995075955;;;2.4947804695502582;40.460975597248314
46382;BME280;66809;52.974;-2.514;2024-01-06T04:39:40;1006.6761228950306;;;2.4544734008336433;40.45121797240475
46382;BME280;66809;52.974;-2.514;2024-01-06T04:41:41;1006.6888543163788;;;2.4103087389696314;40.443779010642025
46382;BME280;66809;52.974;-2.514;2024-01-06T04:43:41;1006.7004727859573;;;2.368207782113612;40.43558278507966
46382;BME280;66809;52.974;-2.514;2024-01-06T04:45:40;1006.7115664411509;;;2.339005635187448;40.41189089090871
46382;BME280;66809;52.974;-2.514;2024-01-06T04:47:40;1006.723329890844;;;2.3020409475640937;40.39350423484436
46382;BME280;66809;52.974;-2.514;2024-01-06T04:49:41;1006.7364449996735;;;2.2719385018387914;40.3654768426205
46382;BME280;66809;52.974;-2.514;2024-01-06T04:51:40;1006.7506515947827;;;2.242306524247014;40.343039378344955
46382;BME280;66809;52.974;-2.514;2024-01-06T04:53:41;1006.7655524412543;;;2.2154332137207353;40.32253556923357
46382;BME280;66809;52.974;-2.514;2024-01-06T04:55:41;1006.7801661810713;;;2.1902707610394327;40.31506730855006
46382;BME280;66809;52.974;-2.514;2024-01-06T04:57:41;1006.7934118048249;;;2.1638887581436688;40.28409463698934
46382;BME280;66809;52.974;-2.514;2024-01-06T04:59:41;1006.8065277451332;;;2.1486429602080417;40.26528332670016
46382;BME280;66809;52.974;-2.514;2024-01-06T05:01:41;1006.8187078949343;;;2.132202823008535;40.24599512153438
46382;BME280;66809;52.974;-2.514;2024-01-06T05:03:41;1006.8303966333076;;;2.119375289210444;40.2202469434744
46382;BME280;66809;52.974;-2.514;2024-01-06T05:05:41;1006.8407869674334;;;2.1048560640911633;40.208372870241384
46382;BME280;66809;52.974;-2.514;2024-01-06T05:07:41;1006.8502873629764;;;2.0869443694663166;40.1977640892935
46382;BME280;66809;52.974;-2.514;2024-01-06T05:09:41;1006.8599068081389;;;2.0738886708672593;40.200169789539345
46382;BME280;66809;52.974;-2.514;2024-01-06T05:11:43;1006.8689241611356;;;2.0779529768341436;40.17395799460481
46382;BME280;66809;52.974;-2.514;2024-01-06T05:13:41;1006.8788428774873;;;2.0739270786963835;40.14649750039856
46382;BME280;66809;52.974;-2.514;2024-01-06T05:15:41;1006.8899756869522;;;2.0705984928318886;40.11961491874397
46382;BME280;66809;52.974;-2.514;2024-01-06T05:17:41;1006.9032627019093;;;2.0856363327747545;40.115757074024394
46382;BME280;66809;52.974;-2.514;2024-01-06T05:19:41;1006.9182050360821;;;2.0973458676781247;40.12943584168405
46382;BME280;66809;52.974;-2.514;2024-01-06T05:21:41;1006.9340326645615;;;2.1034113592072763;40.12750929854842
46382;BME280;66809;52.974;-2.514;2024-01-06T05:23:41;1006.9493057114775;;;2.1168935773164934;40.13877543776708
46382;BME280;66809;52.974;-2.514;2024-01-06T05:25:41;1006.9632835751029;;;2.1170027945448426;40.16303996241554
46382;BME280;66809;52.974;-2.514;2024-01-06T05:27:41;1006.977080157338;;;2.1100635622098656;40.18778989025876
46382;BME280;66809;52.974;-2.514;2024-01-06T05:29:41;1006.9933579097161;;;2.121538127340935;40.18981910935724
46382;BME280;66809;52.974;-2.514;2024-01-06T05:31:41;1007.010798028055;;;2.1125338177963857;40.18722502412927
46382;BME280;66809;52.974;-2.514;2024-01-06T05:33:41;1007.0288702778709;;;2.11579518020175;40.17183109178019
46382;BME280;66809;52.974;-2.514;2024-01-06T05:35:41;1007.047804993559;;;2.118658649658875;40.140748108297466
46382;BME280;66809;52.974;-2.514;2024-01-06T05:37:41;1007.0669002319574;;;2.132735979510539;40.11890039968489
46382;BME280;66809;52.974;-2.514;2024-01-06T05:39:41;1007.0864050583227;;;2.145670728108198;40.10571758236996
46382;BME280;66809;52.974;-2.514;2024-01-06T05:41:41;1007.1048201693351;;;2.1461748077732694;40.09493580794671
46382;BME280;66809;52.974;-2.514;2024-01-06T05:43:41;1007.1237727303495;;;2.1494863130990685;40.09521967429573
46382;BME280;66809;52.974;-2.514;2024-01-06T05:45:41;1007.142801416151;;;2.150731091425331;40.11860772633982
46382;BME280;66809;52.974;-2.514;2024-01-06T05:47:41;1007.1612656223568;;;2.1589137181845595;40.14392608188634
46382;BME280;66809;52.974;-2.514;2024-01-06T05:49:41;1007.1786462715928;;;2.1679028720623794;40.16491606015908
46382;BME280;66809;52.974;-2.514;2024-01-06T05:51:44;1007.1959508045926;;;2.165147233199158;40.175793239061136
46382;BME280;66809;52.974;-2.514;2024-01-06T05:53:41;1007.2125721236367;;;2.1756133674230598;40.18849764954679
46382;BME280;66809;52.974;-2.514;2024-01-06T05:55:41;1007.2313182063592;;;2.1700600810907513;40.207751233189875
46382;BME280;66809;52.974;-2.514;2024-01-06T05:57:41;1007.2514333925158;;;2.1731934971306766;40.247527019371816
46382;BME280;66809;52.974;-2.514;2024-01-06T05:59:41;1007.2722031246177;;;2.162940828234959;40.27931093256705
46382;BME280;66809;52.974;-2.514;2024-01-06T06:01:41;1007.2935307907486;;;2.152647530606518;40.30800949002046
46382;BME280;66809;52.974;-2.514;2024-01-06T06:03:41;1007.3151983793721;;;2.155923500514568;40.34401538121808
46382;BME280;66809;52.974;-2.514;2024-01-06T06:05:41;1007.3373809312794;;;2.143496281101678;40.352471874931986
46382;BME280;66809;52.974;-2.514;2024-01-06T06:07:41;1007.3585309502828;;;2.138337600473842;40.37662975775132
46382;BME280;66809;52.974;-2.514;2024-01-06T06:09:41;1007.3798881272148;;;2.1415631895196032;40.386825578012306
46382;BME280;66809;52.974;-2.514;2024-01-06T06:11:41;1007.4007116888903;;;2.120662346953286;40.40405124792698
46382;BME280;66809;52.974;-2.514;2024-01-06T06:13:41;1007.4204042925702;;;2.1119079242877516;40.4255024943496
46382;BME280;66809;52.974;-2.514;2024-01-06T06:15:41;1007.4413262554385;;;2.102061334014461;40.45021224306505
46382;BME280;66809;52.974;-2.514;2024-01-06T06:17:41;1007.4621820861314;;;2.0770324273325556;40.46866886666084
46382;BME280;66809;52.974;-2.514;2024-01-06T06:19:41;1007.4831679825297;;;2.057196927175359;40.50888017552617
46382;BME280;66809;52.974;-2.514;2024-01-06T06:21:41;1007.5037237681074;;;2.04907261613611;40.53495356477381
46382;BME280;66809;52.974;-2.514;2024-01-06T06:23:41;1007.5246316487888;;;2.0359175655745094;40.547736291617824
46382;BME280;66809;52.974;-2.514;2024-01-06T06:25:41;1007.5469855354838;;;2.0217543601605277;40.54386091041695
46382;BME280;66809;52.974;-2.514;2024-01-06T06:27:41;1007.5688207743175;;;2.0148664419067375;40.53574475196215
46382;BME280;66809;52.974;-2.514;2024-01-06T06:29:41;1007.5894047029666;;;1.9999622730996904;40.52801838352752
46382;BME280;66809;52.974;-2.514;2024-01-06T06:31:41;1007.6096145824868;;;1.9871567990142154;40.51211967670941
46382;BME280;66809;52.974;-2.514;2024-01-06T06:33:41;1007.6313721487462;;;1.961346347999108;40.49025152347185
46382;BME280;66809;52.974;-2.514;2024-01-06T06:35:41;1007.6540481422745;;;1.9382203549037762;40.479154566751426
46382;BME280;66809;52.974;-2.514;2024-01-06T06:37:41;1007.6780943843568;;;1.9139517967929585;40.473721694216565
46382;BME280;66809;52.974;-2.514;2024-01-06T06:39:41;1007.7033580771764;;;1.8905737824417614;40.458469740483146
46382;BME280;66809;52.974;-2.514;2024-01-06T06:41:41;1007.7291027328827;;;1.8703920067140076;40.43571422137327
46382;BME280;66809;52.974;-2.514;2024-01-06T06:43:41;1007.7564244149432;;;1.8480443232210098;40.405645076189835
46382;BME280;66809;52.974;-2.514;2024-01-06T06:45:41;1007.7841789893282;;;1.8277297548925324;40.36970784923715
46382;BME280;66809;52.974;-2.514;2024-01-06T06:47:41;1007.8119109336673;;;1.8064910274576529;40.329817179793324
46382;BME280;66809;52.974;-2.514;2024-01-06T06:49:41;1007.8400627080877;;;1.7739779711214445;40.300122506948256
46382;BME280;66809;52.974;-2.514;2024-01-06T06:51:41;1007.868376371032;;;1.7541506416989172;40.27928681774277
46382;BME280;66809;52.974;-2.514;2024-01-06T06:53:41;1007.8978291958286;;;1.7353650708442576;40.24392693371036
46382;BME280;66809;52.974;-2.514;2024-01-06T06:55:41;1007.9261949981636;;;1.7168315368065987;40.19836812022274
46382;BME280;66809;52.974;-2.514;2024-01-06T06:57:41;1007.9536269648836;;;1.6998368471132528;40.148000117049975
46382;BME280;66809;52.974;-2.514;2024-01-06T06:59:41;1007.9808196338184;;;1.687649110456115;40.1048604323436
46382;BME280;66809;52.974;-2.514;2024-01-06T07:01:41;1008.0088178621887;;;1.6657802999786822;40.0672169331788
46382;BME280;66809;52.974;-2.514;2024-01-06T07:03:41;1008.0361704684564;;;1.6337713779266763;40.01033520282519
46382;BME280;66809;52.974;-2.514;2024-01-06T07:05:41;1008.0633595175951;;;1.617188432951419;39.97231616752068
46382;BME280;66809;52.974;-2.514;2024-01-06T07:07:41;1008.0910959895948;;;1.5971579432383476;39.95775154228179
46382;BME280;66809;52.974;-2.514;2024-01-06T07:09:41;1008.11955199039;;;1.5659639913644599;39.9663714076841